Time;durP1;ratioP1;P1;durP2;ratioP2;P2;SDS_P1;SDS_P2;PMS_P1;PMS_P2;Temp;Humidity;BMP_temperature;BMP_pressure;BME280_temperature;BME280_humidity;BME280_pressure;Samples;Min_cycle;Max_cycle;Signal;HPM_P1;HPM_P2
2023/06/05 00:01:18;;;;;;;;;;;;;;;15.22;100.00;-18437.19;5028704;28;19999;-80
2023/06/05 00:03:43;;;;;;;;;;;;;;;15.08;100.00;-18433.50;5030636;28;19924;-80
2023/06/05 00:06:09;;;;;;;;;;;;;;;15.15;100.00;-18435.28;5025288;28;19947;-80
2023/06/05 00:08:35;;;;;;;;;;;;;;;14.99;100.00;-18431.19;5018662;28;19958;-80
2023/06/05 00:11:00;;;;;;;;;;;;;;;15.17;100.00;-18435.84;5025459;28;19925;-81
2023/06/05 00:13:25;;;;;;;;;;;;;;;15.10;100.00;-18434.19;5020832;28;19988;-81
2023/06/05 00:15:51;;;;;;;;;;;;;;;15.00;100.00;-18431.31;5023193;28;19936;-81
2023/06/05 00:18:17;;;;;;;;;;;;;;;15.02;100.00;-18432.00;5025225;28;19921;-80
2023/06/05 00:20:42;;;;;;;;;;;;;;;14.96;100.00;-18430.34;5019635;28;19999;-80
2023/06/05 00:23:08;;;;;;;;;;;;;;;14.91;100.00;-18429.00;5022904;28;19929;-80
2023/06/05 00:25:33;;;;;;;;;;;;;;;15.02;100.00;-18431.88;5025766;28;19924;-80
2023/06/05 00:27:59;;;;;;;;;;;;;;;14.92;100.00;-18429.25;5016990;28;19921;-80
2023/06/05 00:30:24;;;;;;;;;;;;;;;14.82;100.00;-18426.66;5027313;28;19924;-80
2023/06/05 00:32:49;;;;;;;;;;;;;;;14.84;100.00;-18427.06;5016862;28;19924;-80
2023/06/05 00:35:14;;;;;;;;;;;;;;;14.75;100.00;-18424.59;5027849;28;20356;-80
2023/06/05 00:37:40;;;;;;;;;;;;;;;14.72;100.00;-18423.78;5017546;28;19929;-79
2023/06/05 00:40:05;;;;;;;;;;;;;;;14.87;100.00;-18427.91;5037553;28;19928;-80
2023/06/05 00:42:31;;;;;;;;;;;;;;;14.84;100.00;-18427.06;5019336;28;20011;-80
2023/06/05 00:44:56;;;;;;;;;;;;;;;14.76;100.00;-18424.88;5019656;28;19975;-80
2023/06/05 00:47:21;;;;;;;;;;;;;;;14.76;100.00;-18425.03;5021205;28;19932;-80
2023/06/05 00:49:47;;;;;;;;;;;;;;;14.66;100.00;-18422.41;5020358;28;19928;-80
2023/06/05 00:52:13;;;;;;;;;;;;;;;14.59;100.00;-18420.38;5026448;28;19926;-80
2023/06/05 00:54:40;;;;;;;;;;;;;;;14.48;100.00;-18417.50;5020555;28;20008;-80
2023/06/05 00:57:07;;;;;;;;;;;;;;;14.49;100.00;-18417.63;5027623;28;19924;-81
2023/06/05 00:59:34;;;;;;;;;;;;;;;14.40;100.00;-18415.28;5017751;28;20542;-81
2023/06/05 01:02:01;;;;;;;;;;;;;;;14.34;100.00;-18413.66;5016459;28;19925;-81
2023/06/05 01:04:27;;;;;;;;;;;;;;;14.29;100.00;-18412.28;5017072;28;19921;-80
2023/06/05 01:06:53;;;;;;;;;;;;;;;14.41;100.00;-18415.56;5022892;28;19928;-81
2023/06/05 01:09:18;;;;;;;;;;;;;;;14.39;100.00;-18415.16;5023546;28;19921;-80
2023/06/05 01:11:46;;;;;;;;;;;;;;;14.33;100.00;-18413.38;5026753;28;19921;-81
2023/06/05 01:14:20;;;;;;;;;;;;;;;14.31;100.00;-18412.97;5029681;28;20040;-81
2023/06/05 01:16:47;;;;;;;;;;;;;;;14.45;100.00;-18416.81;5021642;28;19921;-80
2023/06/05 01:19:17;;;;;;;;;;;;;;;14.50;100.00;-18417.91;5015634;28;19964;-80
2023/06/05 01:21:42;;;;;;;;;;;;;;;14.33;100.00;-18413.38;5023378;28;20380;-79
2023/06/05 01:24:07;;;;;;;;;;;;;;;14.13;100.00;-18408.19;5030679;28;19925;-80
2023/06/05 01:26:42;;;;;;;;;;;;;;;14.18;100.00;-18409.56;5017001;28;20020;-80
2023/06/05 01:29:11;;;;;;;;;;;;;;;14.08;100.00;-18406.66;5037860;28;19978;-79
2023/06/05 01:31:38;;;;;;;;;;;;;;;14.06;100.00;-18406.25;5041810;28;19978;-80
2023/06/05 01:34:07;;;;;;;;;;;;;;;13.96;100.00;-18403.53;5016197;28;19922;-80
2023/06/05 01:36:33;;;;;;;;;;;;;;;13.91;100.00;-18402.16;5021561;28;19917;-80
2023/06/05 01:38:58;;;;;;;;;;;;;;;13.93;100.00;-18402.84;5026151;28;19925;-79
2023/06/05 01:41:26;;;;;;;;;;;;;;;13.99;100.00;-18404.47;5016963;28;20063;-80
2023/06/05 01:43:52;;;;;;;;;;;;;;;13.99;100.00;-18404.34;5039356;28;19924;-79
2023/06/05 01:46:19;;;;;;;;;;;;;;;13.98;100.00;-18404.22;5026395;28;19932;-80
2023/06/05 01:48:45;;;;;;;;;;;;;;;14.01;100.00;-18404.88;5028758;28;19917;-79
2023/06/05 01:51:10;;;;;;;;;;;;;;;13.89;100.00;-18401.59;5027309;28;19922;-80
2023/06/05 01:53:35;;;;;;;;;;;;;;;13.74;100.00;-18397.75;5023194;28;19960;-79
2023/06/05 01:56:02;;;;;;;;;;;;;;;13.77;100.00;-18398.44;5021913;28;20446;-80
2023/06/05 01:58:27;;;;;;;;;;;;;;;13.53;100.00;-18392.00;5021289;28;19928;-80
2023/06/05 02:00:53;;;;;;;;;;;;;;;13.50;100.00;-18391.31;5019779;28;20012;-80
2023/06/05 02:03:19;;;;;;;;;;;;;;;13.65;100.00;-18395.31;5023817;28;19971;-80
2023/06/05 02:05:44;;;;;;;;;;;;;;;13.68;100.00;-18396.00;5029445;28;20372;-81
2023/06/05 02:08:10;;;;;;;;;;;;;;;13.61;100.00;-18394.22;5021250;28;19951;-79
2023/06/05 02:10:37;;;;;;;;;;;;;;;13.58;100.00;-18393.38;5020726;28;20745;-80
2023/06/05 02:13:03;;;;;;;;;;;;;;;13.63;100.00;-18394.63;5022558;28;19921;-80
2023/06/05 02:15:28;;;;;;;;;;;;;;;13.63;100.00;-18394.75;5012395;28;19921;-81
2023/06/05 02:17:54;;;;;;;;;;;;;;;13.69;100.00;-18396.25;5018393;28;19929;-80
2023/06/05 02:20:20;;;;;;;;;;;;;;;13.66;100.00;-18395.56;5025460;28;19977;-82
2023/06/05 02:22:49;;;;;;;;;;;;;;;13.44;100.00;-18389.56;5029317;28;19929;-81
2023/06/05 02:25:15;;;;;;;;;;;;;;;13.28;100.00;-18385.44;5024204;28;19928;-81
2023/06/05 02:27:41;;;;;;;;;;;;;;;13.37;100.00;-18387.63;5023985;28;19936;-81
2023/06/05 02:30:06;;;;;;;;;;;;;;;13.34;100.00;-18386.81;5027582;28;20016;-80
2023/06/05 02:32:32;;;;;;;;;;;;;;;13.26;100.00;-18384.88;5023895;28;19929;-80
2023/06/05 02:34:57;;;;;;;;;;;;;;;13.22;100.00;-18383.66;5032305;28;20386;-80
2023/06/05 02:37:26;;;;;;;;;;;;;;;13.12;100.00;-18381.03;5024110;28;19925;-81
2023/06/05 02:39:51;;;;;;;;;;;;;;;13.12;100.00;-18381.03;5021489;28;19997;-81
2023/06/05 02:42:18;;;;;;;;;;;;;;;13.09;100.00;-18380.22;5020828;28;19945;-80
2023/06/05 02:44:43;;;;;;;;;;;;;;;12.98;100.00;-18377.22;5027308;28;19921;-81
2023/06/05 02:47:09;;;;;;;;;;;;;;;12.88;100.00;-18374.75;5025843;28;20016;-80
2023/06/05 02:49:35;;;;;;;;;;;;;;;13.00;100.00;-18377.75;5023993;28;20188;-81
2023/06/05 02:52:00;;;;;;;;;;;;;;;12.75;100.00;-18371.19;5027817;28;20215;-80
2023/06/05 02:54:28;;;;;;;;;;;;;;;12.70;100.00;-18369.81;5031623;28;20389;-80
2023/06/05 02:56:54;;;;;;;;;;;;;;;12.77;100.00;-18371.59;5028031;28;19921;-81
2023/06/05 02:59:21;;;;;;;;;;;;;;;12.92;100.00;-18375.56;5028794;28;19933;-81
2023/06/05 03:01:47;;;;;;;;;;;;;;;12.71;100.00;-18370.06;5027581;28;20491;-80
2023/06/05 03:04:12;;;;;;;;;;;;;;;12.71;100.00;-18369.94;5027703;28;19997;-81
2023/06/05 03:06:38;;;;;;;;;;;;;;;12.82;100.00;-18373.09;5026302;28;19932;-81
2023/06/05 03:09:03;;;;;;;;;;;;;;;13.03;100.00;-18378.56;5023602;28;20003;-81
2023/06/05 03:11:29;;;;;;;;;;;;;;;13.04;100.00;-18378.84;5026431;28;19933;-81
2023/06/05 03:13:54;;;;;;;;;;;;;;;12.94;100.00;-18376.09;5024682;28;19975;-81
2023/06/05 03:16:19;;;;;;;;;;;;;;;12.69;100.00;-18369.53;5025957;28;19922;-80
2023/06/05 03:18:45;;;;;;;;;;;;;;;12.50;100.00;-18364.31;5029182;28;19921;-81
2023/06/05 03:21:11;;;;;;;;;;;;;;;12.59;100.00;-18366.78;5023194;28;20036;-80
2023/06/05 03:23:36;;;;;;;;;;;;;;;12.60;100.00;-18367.19;5026561;28;20760;-80
2023/06/05 03:26:02;;;;;;;;;;;;;;;12.68;100.00;-18369.25;5026955;28;20004;-81
2023/06/05 03:28:27;;;;;;;;;;;;;;;12.68;100.00;-18369.13;5023126;28;19998;-81
2023/06/05 03:30:52;;;;;;;;;;;;;;;12.66;100.00;-18368.72;5028449;28;19922;-81
2023/06/05 03:33:17;;;;;;;;;;;;;;;12.61;100.00;-18367.47;5028336;28;19936;-81
2023/06/05 03:35:46;;;;;;;;;;;;;;;12.56;100.00;-18365.97;5029435;28;19921;-80
2023/06/05 03:38:11;;;;;;;;;;;;;;;12.67;100.00;-18368.84;5024522;28;19921;-81
2023/06/05 03:40:39;;;;;;;;;;;;;;;12.51;100.00;-18364.59;5027468;28;19932;-80
2023/06/05 03:43:04;;;;;;;;;;;;;;;12.60;100.00;-18367.06;5026394;28;19976;-81
2023/06/05 03:45:29;;;;;;;;;;;;;;;12.60;100.00;-18367.06;5033839;28;19925;-81
2023/06/05 03:47:59;;;;;;;;;;;;;;;12.66;100.00;-18368.72;5023978;28;19921;-81
2023/06/05 03:50:24;;;;;;;;;;;;;;;12.59;100.00;-18366.78;5025816;28;20643;-82
2023/06/05 03:52:53;;;;;;;;;;;;;;;12.51;100.00;-18364.59;5019451;28;19956;-81
2023/06/05 03:55:22;;;;;;;;;;;;;;;12.54;100.00;-18365.56;5023620;28;19930;-81
2023/06/05 03:57:47;;;;;;;;;;;;;;;12.54;100.00;-18365.41;5027899;28;19982;-81
2023/06/05 04:00:14;;;;;;;;;;;;;;;12.34;100.00;-18360.19;5026192;28;20667;-81
2023/06/05 04:02:40;;;;;;;;;;;;;;;12.49;100.00;-18364.19;5025973;28;20518;-81
2023/06/05 04:05:05;;;;;;;;;;;;;;;12.35;100.00;-18360.47;5022037;28;19925;-81
2023/06/05 04:07:31;;;;;;;;;;;;;;;12.35;100.00;-18360.47;5021201;28;19921;-81
2023/06/05 04:09:56;;;;;;;;;;;;;;;12.39;100.00;-18361.56;5043308;28;19925;-81
2023/06/05 04:12:21;;;;;;;;;;;;;;;12.55;100.00;-18365.69;5023691;28;19951;-81
2023/06/05 04:14:47;;;;;;;;;;;;;;;12.59;100.00;-18366.78;5027175;28;19925;-81
2023/06/05 04:17:13;;;;;;;;;;;;;;;12.60;100.00;-18367.06;5037378;28;20084;-81
2023/06/05 04:19:38;;;;;;;;;;;;;;;12.64;100.00;-18368.28;5020411;28;19925;-81
2023/06/05 04:22:04;;;;;;;;;;;;;;;12.57;100.00;-18366.22;5029466;28;19920;-80
2023/06/05 04:24:30;;;;;;;;;;;;;;;12.67;100.00;-18368.97;5025948;28;19936;-80
2023/06/05 04:26:55;;;;;;;;;;;;;;;12.58;100.00;-18366.50;5018666;28;19940;-81
2023/06/05 04:29:20;;;;;;;;;;;;;;;12.65;100.00;-18368.56;5024812;28;19921;-80
2023/06/05 04:31:47;;;;;;;;;;;;;;;12.78;100.00;-18372.00;5022440;28;19925;-80
2023/06/05 04:34:13;;;;;;;;;;;;;;;12.72;100.00;-18370.22;5037590;28;19940;-80
2023/06/05 04:36:38;;;;;;;;;;;;;;;12.73;100.00;-18370.50;5025620;28;19964;-79
2023/06/05 04:39:04;;;;;;;;;;;;;;;12.74;100.00;-18370.91;5024175;28;19935;-80
2023/06/05 04:41:32;;;;;;;;;;;;;;;12.83;100.00;-18373.38;5028449;28;19928;-81
2023/06/05 04:43:59;;;;;;;;;;;;;;;12.61;100.00;-18367.34;5028925;28;19925;-80
2023/06/05 04:46:25;;;;;;;;;;;;;;;12.69;100.00;-18369.38;5025735;28;19960;-80
2023/06/05 04:48:55;;;;;;;;;;;;;;;12.65;100.00;-18368.44;5026196;28;19932;-81
2023/06/05 04:51:21;;;;;;;;;;;;;;;12.63;100.00;-18367.88;5025230;28;19925;-80
2023/06/05 04:53:50;;;;;;;;;;;;;;;12.74;100.00;-18370.91;5026690;28;19925;-81
2023/06/05 04:56:15;;;;;;;;;;;;;;;12.79;100.00;-18372.28;5031537;28;20022;-80
2023/06/05 04:58:41;;;;;;;;;;;;;;;12.86;100.00;-18374.19;5026826;28;19929;-80
2023/06/05 05:01:06;;;;;;;;;;;;;;;12.78;100.00;-18372.00;5024011;28;19982;-80
2023/06/05 05:03:31;;;;;;;;;;;;;;;12.83;100.00;-18373.38;5019909;28;19932;-79
2023/06/05 05:05:57;;;;;;;;;;;;;;;12.97;100.00;-18376.94;5024546;28;19921;-80
2023/06/05 05:08:22;;;;;;;;;;;;;;;12.91;100.00;-18375.28;5042099;28;20284;-81
2023/06/05 05:10:47;;;;;;;;;;;;;;;13.05;100.00;-18379.13;5026789;28;19925;-80
2023/06/05 05:13:13;;;;;;;;;;;;;;;13.02;100.00;-18378.31;5029555;28;19948;-80
2023/06/05 05:15:38;;;;;;;;;;;;;;;13.08;100.00;-18379.94;5032889;28;19929;-80
2023/06/05 05:18:04;;;;;;;;;;;;;;;13.07;100.00;-18379.69;5032569;28;19925;-81
2023/06/05 05:20:29;;;;;;;;;;;;;;;13.24;100.00;-18384.34;5034800;28;20300;-80
2023/06/05 05:22:55;;;;;;;;;;;;;;;13.25;100.00;-18384.63;5034710;28;20320;-80
2023/06/05 05:25:21;;;;;;;;;;;;;;;13.31;100.00;-18386.25;5029575;28;19979;-80
2023/06/05 05:27:46;;;;;;;;;;;;;;;13.37;100.00;-18387.63;5030831;28;19922;-80
2023/06/05 05:30:11;;;;;;;;;;;;;;;13.39;100.00;-18388.31;5033720;28;19965;-81
2023/06/05 05:32:37;;;;;;;;;;;;;;;13.50;100.00;-18391.19;5029162;28;19921;-81
2023/06/05 05:35:02;;;;;;;;;;;;;;;13.53;100.00;-18392.00;5024535;28;19929;-80
2023/06/05 05:37:27;;;;;;;;;;;;;;;13.65;100.00;-18395.31;5033857;28;19921;-80
2023/06/05 05:39:52;;;;;;;;;;;;;;;13.82;100.00;-18399.69;5042010;28;19997;-80
2023/06/05 05:42:18;;;;;;;;;;;;;;;13.83;100.00;-18399.97;5034898;28;19963;-80
2023/06/05 05:44:43;;;;;;;;;;;;;;;13.95;100.00;-18403.25;5025243;28;19929;-81
2023/06/05 05:47:09;;;;;;;;;;;;;;;13.87;100.00;-18401.06;5032789;28;19925;-80
2023/06/05 05:49:35;;;;;;;;;;;;;;;13.94;100.00;-18402.97;5031086;28;19975;-81
2023/06/05 05:52:00;;;;;;;;;;;;;;;14.06;100.00;-18406.25;5033013;28;20322;-80
2023/06/05 05:54:27;;;;;;;;;;;;;;;14.19;100.00;-18409.81;5026822;28;20320;-81
2023/06/05 05:56:52;;;;;;;;;;;;;;;14.13;100.00;-18408.19;5033205;28;20423;-80
2023/06/05 05:59:18;;;;;;;;;;;;;;;14.18;100.00;-18409.41;5028000;28;19921;-80
2023/06/05 06:01:43;;;;;;;;;;;;;;;14.22;100.00;-18410.50;5031944;28;19921;-81
2023/06/05 06:04:08;;;;;;;;;;;;;;;14.29;100.00;-18412.41;5032573;28;20015;-80
2023/06/05 06:06:34;;;;;;;;;;;;;;;14.43;100.00;-18416.13;5026133;28;19932;-81
2023/06/05 06:09:00;;;;;;;;;;;;;;;14.59;100.00;-18420.38;5029358;28;19921;-79
2023/06/05 06:11:26;;;;;;;;;;;;;;;14.66;100.00;-18422.41;5030878;28;20676;-80
2023/06/05 06:13:51;;;;;;;;;;;;;;;14.63;100.00;-18421.59;5025805;28;19929;-81
2023/06/05 06:16:17;;;;;;;;;;;;;;;14.83;100.00;-18426.81;5033018;28;19925;-80
2023/06/05 06:18:43;;;;;;;;;;;;;;;14.73;100.00;-18424.19;5027849;28;19922;-80
2023/06/05 06:21:08;;;;;;;;;;;;;;;14.85;100.00;-18427.34;5030875;28;19921;-80
2023/06/05 06:23:33;;;;;;;;;;;;;;;14.91;100.00;-18429.00;5013380;28;20112;-80
2023/06/05 06:25:59;;;;;;;;;;;;;;;14.93;100.00;-18429.53;5033237;28;19921;-80
2023/06/05 06:28:24;;;;;;;;;;;;;;;15.08;100.00;-18433.50;5027284;28;20016;-81
2023/06/05 06:30:50;;;;;;;;;;;;;;;15.12;100.00;-18434.72;5032554;28;19940;-79
2023/06/05 06:33:17;;;;;;;;;;;;;;;15.16;100.00;-18435.56;5023164;28;19921;-80
2023/06/05 06:35:43;;;;;;;;;;;;;;;15.33;100.00;-18440.34;5022145;28;19932;-80
2023/06/05 06:38:08;;;;;;;;;;;;;;;15.38;100.00;-18441.44;5026173;28;19935;-79
2023/06/05 06:40:33;;;;;;;;;;;;;;;15.58;100.00;-18446.91;5034062;28;19921;-79
2023/06/05 06:42:59;;;;;;;;;;;;;;;15.68;100.00;-18449.50;5033901;28;19921;-78
2023/06/05 06:45:25;;;;;;;;;;;;;;;15.70;100.00;-18450.06;5034252;28;20300;-79
2023/06/05 06:47:50;;;;;;;;;;;;;;;15.74;100.00;-18451.16;5034131;28;19978;-78
2023/06/05 06:50:16;;;;;;;;;;;;;;;15.78;100.00;-18452.38;5033207;28;19967;-79
2023/06/05 06:52:41;;;;;;;;;;;;;;;15.78;100.00;-18452.25;5034360;28;20345;-78
2023/06/05 06:55:07;;;;;;;;;;;;;;;15.78;100.00;-18452.38;5034459;28;19934;-78
2023/06/05 06:57:32;;;;;;;;;;;;;;;15.67;100.00;-18449.22;5034199;28;19991;-79
2023/06/05 06:59:57;;;;;;;;;;;;;;;15.81;100.00;-18452.94;5034085;28;19921;-78
2023/06/05 07:02:23;;;;;;;;;;;;;;;15.78;100.00;-18452.38;5049510;28;19918;-79
2023/06/05 07:04:49;;;;;;;;;;;;;;;16.05;100.00;-18459.34;5031813;28;19924;-79
2023/06/05 07:07:15;;;;;;;;;;;;;;;16.07;100.00;-18459.91;5035350;28;20280;-79
2023/06/05 07:09:41;;;;;;;;;;;;;;;16.00;100.00;-18458.25;5031348;28;19917;-79
2023/06/05 07:12:10;;;;;;;;;;;;;;;15.96;100.00;-18457.03;5035711;28;19917;-79
2023/06/05 07:14:35;;;;;;;;;;;;;;;16.00;100.00;-18458.25;5033289;28;19928;-78
2023/06/05 07:17:01;;;;;;;;;;;;;;;16.15;100.00;-18462.09;5035592;28;19939;-79
2023/06/05 07:19:27;;;;;;;;;;;;;;;16.21;100.00;-18463.88;5034687;28;19921;-80
2023/06/05 07:21:53;;;;;;;;;;;;;;;16.24;100.00;-18464.56;5032565;28;19921;-79
2023/06/05 07:24:18;;;;;;;;;;;;;;;16.28;100.00;-18465.63;5027717;28;19928;-81
2023/06/05 07:26:44;;;;;;;;;;;;;;;16.36;100.00;-18467.69;5030000;28;19920;-80
2023/06/05 07:29:10;;;;;;;;;;;;;;;16.44;100.00;-18470.00;5033983;28;19924;-81
2023/06/05 07:31:36;;;;;;;;;;;;;;;16.48;100.00;-18470.97;5033714;28;19917;-80
2023/06/05 07:34:01;;;;;;;;;;;;;;;16.51;100.00;-18471.78;5035156;28;19959;-81
2023/06/05 07:36:27;;;;;;;;;;;;;;;16.56;100.00;-18473.16;5029238;28;20012;-80
2023/06/05 07:38:52;;;;;;;;;;;;;;;16.66;100.00;-18475.75;5031664;28;19929;-80
2023/06/05 07:41:17;;;;;;;;;;;;;;;16.77;100.00;-18478.75;5016210;28;19925;-80
2023/06/05 07:43:42;;;;;;;;;;;;;;;16.77;100.00;-18478.63;5033254;28;19928;-79
2023/06/05 07:46:08;;;;;;;;;;;;;;;16.97;100.00;-18483.94;5033123;28;20408;-80
2023/06/05 07:48:35;;;;;;;;;;;;;;;17.07;100.00;-18486.69;5035290;28;19987;-80
2023/06/05 07:51:00;;;;;;;;;;;;;;;16.95;100.00;-18483.41;5015363;28;20592;-80
2023/06/05 07:53:25;;;;;;;;;;;;;;;16.99;100.00;-18484.50;5013637;28;19917;-79
2023/06/05 07:55:51;;;;;;;;;;;;;;;17.24;100.00;-18491.31;5027537;28;20012;-80
2023/06/05 07:58:17;;;;;;;;;;;;;;;17.37;100.00;-18494.75;5030876;28;20396;-79
2023/06/05 08:00:43;;;;;;;;;;;;;;;17.51;100.00;-18498.56;5032188;28;19977;-80
2023/06/05 08:03:08;;;;;;;;;;;;;;;17.62;100.00;-18501.44;5033515;28;19921;-80
2023/06/05 08:05:35;;;;;;;;;;;;;;;17.68;100.00;-18503.06;5033315;28;19964;-80
2023/06/05 08:08:02;;;;;;;;;;;;;;;17.69;100.00;-18503.34;5026149;28;20459;-80
2023/06/05 08:10:27;;;;;;;;;;;;;;;17.70;100.00;-18503.63;5025533;28;19940;-80
2023/06/05 08:12:52;;;;;;;;;;;;;;;17.75;100.00;-18504.97;5020860;28;19925;-80
2023/06/05 08:15:18;;;;;;;;;;;;;;;17.91;100.00;-18509.22;5027807;28;19971;-80
2023/06/05 08:17:43;;;;;;;;;;;;;;;18.15;100.00;-18515.47;5022902;28;19921;-80
2023/06/05 08:20:10;;;;;;;;;;;;;;;18.03;100.00;-18512.34;5036417;23;19925;-80
2023/06/05 08:22:36;;;;;;;;;;;;;;;18.06;100.00;-18513.03;5007153;28;20303;-79
2023/06/05 08:25:04;;;;;;;;;;;;;;;18.29;100.00;-18519.16;5009049;28;19940;-80
2023/06/05 08:27:29;;;;;;;;;;;;;;;18.30;100.00;-18519.44;5007088;28;19995;-80
2023/06/05 08:29:54;;;;;;;;;;;;;;;18.44;100.00;-18523.25;5006774;28;20019;-79
2023/06/05 08:32:21;;;;;;;;;;;;;;;18.51;100.00;-18525.03;5007277;28;19964;-79
2023/06/05 08:34:46;;;;;;;;;;;;;;;18.59;100.00;-18527.34;5008185;28;20133;-80
2023/06/05 08:37:11;;;;;;;;;;;;;;;18.64;100.00;-18528.72;5005499;28;19972;-80
2023/06/05 08:39:36;;;;;;;;;;;;;;;18.72;100.00;-18530.88;5006342;28;19930;-79
2023/06/05 08:42:03;;;;;;;;;;;;;;;18.85;100.00;-18534.16;4948832;28;19922;-80
2023/06/05 08:44:28;;;;;;;;;;;;;;;18.96;100.00;-18537.16;5005275;28;19929;-79
2023/06/05 08:46:58;;;;;;;;;;;;;;;19.03;100.00;-18539.06;4988872;28;19925;-79
2023/06/05 08:49:26;;;;;;;;;;;;;;;19.22;100.00;-18544.13;4989244;28;19930;-79
2023/06/05 08:51:52;;;;;;;;;;;;;;;19.52;100.00;-18552.16;5003949;28;19989;-79
2023/06/05 08:54:18;;;;;;;;;;;;;;;19.34;100.00;-18547.38;5008846;28;19925;-79
2023/06/05 08:56:45;;;;;;;;;;;;;;;19.46;100.00;-18550.38;5011305;28;19984;-79
2023/06/05 08:59:14;;;;;;;;;;;;;;;19.64;100.00;-18555.16;5010220;28;20895;-79
2023/06/05 09:01:40;;;;;;;;;;;;;;;19.74;100.00;-18558.00;5011494;28;19930;-79
2023/06/05 09:04:05;;;;;;;;;;;;;;;19.81;100.00;-18559.78;5009636;28;19932;-79
2023/06/05 09:06:33;;;;;;;;;;;;;;;19.77;100.00;-18558.84;4994092;28;19929;-79
2023/06/05 09:08:59;;;;;;;;;;;;;;;19.65;100.00;-18555.41;5010614;28;19921;-79
2023/06/05 09:11:26;;;;;;;;;;;;;;;19.86;100.00;-18561.16;5011482;28;20008;-79
2023/06/05 09:13:52;;;;;;;;;;;;;;;19.94;100.00;-18563.31;5006673;28;19925;-79
2023/06/05 09:16:21;;;;;;;;;;;;;;;19.99;100.00;-18564.69;4993452;28;20311;-81
2023/06/05 09:18:54;;;;;;;;;;;;;;;19.92;100.00;-18562.66;5008686;28;19961;-81
2023/06/05 09:21:19;;;;;;;;;;;;;;;19.98;99.58;-18564.41;5011581;28;19922;-81
2023/06/05 09:23:44;;;;;;;;;;;;;;;19.98;99.74;-18564.41;4996316;28;20307;-84
2023/06/05 09:26:12;;;;;;;;;;;;;;;20.19;99.38;-18569.84;5011436;28;19933;-81
2023/06/05 09:28:52;;;;;;;;;;;;;;;20.36;93.34;-18574.47;5008477;28;19937;-81
2023/06/05 09:31:18;;;;;;;;;;;;;;;20.38;97.52;-18575.03;5010235;28;19922;-81
2023/06/05 09:33:53;;;;;;;;;;;;;;;20.33;98.23;-18573.66;5012090;28;19925;-80
2023/06/05 09:36:18;;;;;;;;;;;;;;;20.19;98.25;-18569.84;5010677;28;20552;-84
2023/06/05 09:38:44;;;;;;;;;;;;;;;20.45;99.38;-18576.78;5011995;28;19930;-81
2023/06/05 09:41:09;;;;;;;;;;;;;;;20.69;92.26;-18583.19;5010201;28;19922;-81
2023/06/05 09:43:36;;;;;;;;;;;;;;;20.61;93.83;-18581.16;5009059;28;19921;-83
2023/06/05 09:46:09;;;;;;;;;;;;;;;20.89;90.42;-18588.50;5010167;28;19925;-79
2023/06/05 09:48:35;;;;;;;;;;;;;;;20.81;91.95;-18586.31;5004834;28;19968;-80
2023/06/05 09:51:11;;;;;;;;;;;;;;;20.93;89.48;-18589.72;5006252;28;20348;-79
2023/06/05 09:53:47;;;;;;;;;;;;;;;21.24;89.17;-18597.88;5004374;28;19969;-79
2023/06/05 09:56:14;;;;;;;;;;;;;;;21.48;82.68;-18604.16;5004670;28;19921;-79
2023/06/05 09:58:46;;;;;;;;;;;;;;;21.22;84.07;-18597.34;5006978;28;20440;-81
2023/06/05 10:01:14;;;;;;;;;;;;;;;21.53;86.79;-18605.50;4987501;28;19936;-80
2023/06/05 10:03:42;;;;;;;;;;;;;;;21.84;83.25;-18613.94;5004831;28;20332;-82
2023/06/05 10:06:08;;;;;;;;;;;;;;;22.16;78.73;-18622.34;4993842;28;19929;-81
2023/06/05 10:08:33;;;;;;;;;;;;;;;22.44;75.58;-18629.81;5005999;28;19922;-79
2023/06/05 10:11:00;;;;;;;;;;;;;;;22.46;75.80;-18630.38;5008096;28;19928;-79
2023/06/05 10:13:26;;;;;;;;;;;;;;;22.14;76.29;-18621.81;5005045;28;19921;-80
2023/06/05 10:15:52;;;;;;;;;;;;;;;21.93;77.76;-18616.25;5004355;28;20027;-80
2023/06/05 10:18:17;;;;;;;;;;;;;;;22.13;76.17;-18621.41;5007129;28;20299;-80
2023/06/05 10:20:43;;;;;;;;;;;;;;;22.16;79.84;-18622.34;5007473;28;19925;-82
2023/06/05 10:23:08;;;;;;;;;;;;;;;22.30;76.40;-18626.03;5007756;28;19921;-80
2023/06/05 10:25:34;;;;;;;;;;;;;;;22.63;69.57;-18634.84;5009189;28;19926;-79
2023/06/05 10:28:06;;;;;;;;;;;;;;;22.77;73.10;-18638.38;5001159;28;20001;-77
2023/06/05 10:30:40;;;;;;;;;;;;;;;22.94;71.16;-18643.00;4996504;28;19921;-78
2023/06/05 10:33:21;;;;;;;;;;;;;;;22.82;68.50;-18639.72;5008375;28;20451;-77
2023/06/05 10:35:55;;;;;;;;;;;;;;;23.06;71.61;-18646.25;5009541;28;19933;-78
2023/06/05 10:38:21;;;;;;;;;;;;;;;23.12;68.61;-18647.88;5014381;28;20009;-78
2023/06/05 10:40:54;;;;;;;;;;;;;;;23.39;63.46;-18654.94;5012607;28;19931;-77
2023/06/05 10:43:33;;;;;;;;;;;;;;;23.12;66.91;-18647.88;5014697;28;19921;-77
2023/06/05 10:46:00;;;;;;;;;;;;;;;23.26;70.49;-18651.41;5001672;28;19925;-79
2023/06/05 10:48:44;;;;;;;;;;;;;;;23.52;65.92;-18658.31;5019693;28;20351;-79
2023/06/05 10:51:28;;;;;;;;;;;;;;;23.63;67.08;-18661.44;5005514;28;19922;-80
2023/06/05 10:53:53;;;;;;;;;;;;;;;23.80;65.92;-18665.78;5014247;28;20428;-77
2023/06/05 10:56:37;;;;;;;;;;;;;;;23.87;61.18;-18667.69;5014822;28;19988;-77
2023/06/05 10:59:15;;;;;;;;;;;;;;;23.64;56.09;-18661.56;4994179;28;19933;-77
2023/06/05 11:01:41;;;;;;;;;;;;;;;23.81;56.53;-18666.06;5011342;28;19926;-79
2023/06/05 11:04:06;;;;;;;;;;;;;;;23.46;59.25;-18656.84;5023559;28;19978;-79
2023/06/05 11:06:32;;;;;;;;;;;;;;;23.67;61.15;-18662.38;5017432;28;19925;-82
2023/06/05 11:09:08;;;;;;;;;;;;;;;23.86;59.52;-18667.53;5012680;28;19985;-81
2023/06/05 11:12:09;;;;;;;;;;;;;;;23.77;58.14;-18665.09;4993331;28;20040;-82
2023/06/05 11:14:44;;;;;;;;;;;;;;;23.42;58.68;-18655.75;4947025;28;20476;-84
2023/06/05 11:17:28;;;;;;;;;;;;;;;23.79;58.28;-18665.66;4999655;28;19922;-80
2023/06/05 11:19:54;;;;;;;;;;;;;;;24.04;57.93;-18672.28;4990342;28;19929;-80
2023/06/05 11:22:20;;;;;;;;;;;;;;;24.08;56.31;-18673.25;5002515;28;19922;-79
2023/06/05 11:24:45;;;;;;;;;;;;;;;23.97;56.23;-18670.41;5006243;28;19929;-80
2023/06/05 11:27:30;;;;;;;;;;;;;;;23.87;57.17;-18667.81;5005464;28;19921;-79
2023/06/05 11:29:56;;;;;;;;;;;;;;;23.96;57.09;-18670.13;5001838;28;19953;-78
2023/06/05 11:32:25;;;;;;;;;;;;;;;24.19;54.83;-18676.09;5002335;28;19928;-78
2023/06/05 11:34:52;;;;;;;;;;;;;;;23.95;53.61;-18669.72;5002749;28;20319;-78
2023/06/05 11:37:21;;;;;;;;;;;;;;;24.11;55.32;-18674.06;5004934;28;19965;-78
2023/06/05 11:39:46;;;;;;;;;;;;;;;24.41;56.32;-18682.03;4996800;28;20443;-78
2023/06/05 11:42:12;;;;;;;;;;;;;;;24.62;52.44;-18687.47;5001092;28;19925;-78
2023/06/05 11:44:37;;;;;;;;;;;;;;;24.46;52.02;-18683.41;5002045;28;20455;-78
2023/06/05 11:47:02;;;;;;;;;;;;;;;24.80;52.32;-18692.34;5000980;28;19929;-77
2023/06/05 11:49:28;;;;;;;;;;;;;;;24.98;49.58;-18697.09;5002414;28;19929;-79
2023/06/05 11:51:54;;;;;;;;;;;;;;;25.06;50.41;-18699.25;5005470;28;20501;-79
2023/06/05 11:54:39;;;;;;;;;;;;;;;25.26;49.60;-18704.53;5003966;28;20055;-79
2023/06/05 11:57:08;;;;;;;;;;;;;;;25.45;49.02;-18709.53;4986216;28;19926;-79
2023/06/05 11:59:37;;;;;;;;;;;;;;;25.56;45.94;-18712.53;4999422;28;19929;-78
2023/06/05 12:02:03;;;;;;;;;;;;;;;25.38;48.42;-18707.66;5000925;28;19929;-79
2023/06/05 12:04:30;;;;;;;;;;;;;;;25.69;47.31;-18715.91;5005357;28;19925;-80
2023/06/05 12:06:56;;;;;;;;;;;;;;;25.55;47.00;-18712.25;5012736;28;19932;-82
2023/06/05 12:09:22;;;;;;;;;;;;;;;25.44;45.90;-18709.28;5006388;28;20548;-79
2023/06/05 12:11:48;;;;;;;;;;;;;;;25.06;47.39;-18699.13;4991746;28;19921;-78
2023/06/05 12:14:27;;;;;;;;;;;;;;;24.88;47.07;-18694.50;4987364;28;19935;-83
2023/06/05 12:16:52;;;;;;;;;;;;;;;25.30;47.00;-18705.63;5005154;28;20303;-81
2023/06/05 12:19:18;;;;;;;;;;;;;;;25.18;45.38;-18702.38;5000390;28;19932;-78
2023/06/05 12:21:54;;;;;;;;;;;;;;;25.20;45.71;-18702.91;4995987;28;20359;-79
2023/06/05 12:24:26;;;;;;;;;;;;;;;25.55;45.20;-18712.25;5015796;28;19932;-78
2023/06/05 12:26:55;;;;;;;;;;;;;;;25.69;44.97;-18715.91;5014091;28;19925;-79